sensor_id;sensor_type;location;lat;lon;timestamp;P1;durP1;ratioP1;P2;durP2;ratioP2
69330;SDS011;56475;52.114;5.480;2022-08-21T00:00:28;5.65;;;2.72;;
69330;SDS011;56475;52.114;5.480;2022-08-21T00:03:02;4.30;;;2.97;;
69330;SDS011;56475;52.114;5.480;2022-08-21T00:05:35;11.35;;;3.28;;
69330;SDS011;56475;52.114;5.480;2022-08-21T00:08:05;3.03;;;2.80;;
69330;SDS011;56475;52.114;5.480;2022-08-21T00:10:33;6.32;;;3.00;;
69330;SDS011;56475;52.114;5.480;2022-08-21T00:13:01;3.53;;;2.60;;
69330;SDS011;56475;52.114;5.480;2022-08-21T00:15:30;5.65;;;3.33;;
69330;SDS011;56475;52.114;5.480;2022-08-21T00:17:58;7.35;;;3.50;;
69330;SDS011;56475;52.114;5.480;2022-08-21T00:20:25;5.97;;;3.17;;
69330;SDS011;56475;52.114;5.480;2022-08-21T00:22:53;4.35;;;3.17;;
69330;SDS011;56475;52.114;5.480;2022-08-21T00:25:23;7.13;;;3.20;;
69330;SDS011;56475;52.114;5.480;2022-08-21T00:27:51;6.60;;;3.10;;
69330;SDS011;56475;52.114;5.480;2022-08-21T00:30:20;5.07;;;3.20;;
69330;SDS011;56475;52.114;5.480;2022-08-21T00:32:50;6.07;;;3.30;;
69330;SDS011;56475;52.114;5.480;2022-08-21T00:35:21;6.18;;;3.50;;
69330;SDS011;56475;52.114;5.480;2022-08-21T00:37:51;8.50;;;3.35;;
69330;SDS011;56475;52.114;5.480;2022-08-21T00:40:22;9.13;;;4.82;;
69330;SDS011;56475;52.114;5.480;2022-08-21T00:42:52;7.97;;;3.60;;
69330;SDS011;56475;52.114;5.480;2022-08-21T00:48:13;5.85;;;3.30;;
69330;SDS011;56475;52.114;5.480;2022-08-21T00:50:45;9.82;;;4.00;;
69330;SDS011;56475;52.114;5.480;2022-08-21T00:53:18;5.70;;;3.60;;
69330;SDS011;56475;52.114;5.480;2022-08-21T00:55:45;10.10;;;3.90;;
69330;SDS011;56475;52.114;5.480;2022-08-21T00:58:14;8.47;;;3.63;;
69330;SDS011;56475;52.114;5.480;2022-08-21T01:00:44;7.82;;;3.90;;
69330;SDS011;56475;52.114;5.480;2022-08-21T01:03:15;6.53;;;3.78;;
69330;SDS011;56475;52.114;5.480;2022-08-21T01:05:49;11.00;;;4.28;;
69330;SDS011;56475;52.114;5.480;2022-08-21T01:08:16;5.00;;;4.03;;
69330;SDS011;56475;52.114;5.480;2022-08-21T01:10:45;8.50;;;4.70;;
69330;SDS011;56475;52.114;5.480;2022-08-21T01:13:24;5.63;;;3.97;;
69330;SDS011;56475;52.114;5.480;2022-08-21T01:15:53;8.65;;;4.40;;
69330;SDS011;56475;52.114;5.480;2022-08-21T01:18:21;4.28;;;3.65;;
69330;SDS011;56475;52.114;5.480;2022-08-21T01:21:12;9.35;;;4.25;;
69330;SDS011;56475;52.114;5.480;2022-08-21T01:23:40;11.33;;;4.20;;
69330;SDS011;56475;52.114;5.480;2022-08-21T01:26:10;6.57;;;4.15;;
69330;SDS011;56475;52.114;5.480;2022-08-21T01:28:38;5.85;;;3.90;;
69330;SDS011;56475;52.114;5.480;2022-08-21T01:31:10;9.20;;;3.50;;
69330;SDS011;56475;52.114;5.480;2022-08-21T01:33:42;6.45;;;3.88;;
69330;SDS011;56475;52.114;5.480;2022-08-21T01:36:11;7.10;;;4.00;;
69330;SDS011;56475;52.114;5.480;2022-08-21T01:38:38;5.30;;;4.00;;
69330;SDS011;56475;52.114;5.480;2022-08-21T01:41:05;6.30;;;4.43;;
69330;SDS011;56475;52.114;5.480;2022-08-21T01:43:33;7.82;;;4.90;;
69330;SDS011;56475;52.114;5.480;2022-08-21T01:46:04;10.30;;;5.55;;
69330;SDS011;56475;52.114;5.480;2022-08-21T01:48:32;6.63;;;3.63;;
69330;SDS011;56475;52.114;5.480;2022-08-21T01:51:01;6.55;;;3.88;;
69330;SDS011;56475;52.114;5.480;2022-08-21T01:53:29;5.05;;;3.83;;
69330;SDS011;56475;52.114;5.480;2022-08-21T01:55:59;9.73;;;4.38;;
69330;SDS011;56475;52.114;5.480;2022-08-21T01:58:26;5.13;;;4.50;;
69330;SDS011;56475;52.114;5.480;2022-08-21T02:00:53;6.90;;;4.30;;
69330;SDS011;56475;52.114;5.480;2022-08-21T02:03:21;8.45;;;3.88;;
69330;SDS011;56475;52.114;5.480;2022-08-21T02:06:03;9.25;;;4.05;;
69330;SDS011;56475;52.114;5.480;2022-08-21T02:08:33;12.57;;;4.00;;
69330;SDS011;56475;52.114;5.480;2022-08-21T02:11:00;7.72;;;4.30;;
69330;SDS011;56475;52.114;5.480;2022-08-21T02:13:27;7.07;;;3.63;;
69330;SDS011;56475;52.114;5.480;2022-08-21T02:15:54;8.85;;;4.55;;
69330;SDS011;56475;52.114;5.480;2022-08-21T02:18:22;6.18;;;3.88;;
69330;SDS011;56475;52.114;5.480;2022-08-21T02:20:49;5.80;;;4.40;;
69330;SDS011;56475;52.114;5.480;2022-08-21T02:23:21;12.95;;;5.00;;
69330;SDS011;56475;52.114;5.480;2022-08-21T02:25:52;10.97;;;5.00;;
69330;SDS011;56475;52.114;5.480;2022-08-21T02:28:31;11.75;;;5.18;;
69330;SDS011;56475;52.114;5.480;2022-08-21T02:30:58;8.05;;;5.00;;
69330;SDS011;56475;52.114;5.480;2022-08-21T02:33:25;5.72;;;4.40;;
69330;SDS011;56475;52.114;5.480;2022-08-21T02:35:53;7.45;;;4.35;;
69330;SDS011;56475;52.114;5.480;2022-08-21T02:38:22;6.77;;;4.50;;
69330;SDS011;56475;52.114;5.480;2022-08-21T02:40:55;6.88;;;4.72;;
69330;SDS011;56475;52.114;5.480;2022-08-21T02:43:25;10.63;;;4.40;;
69330;SDS011;56475;52.114;5.480;2022-08-21T02:46:08;7.40;;;5.10;;
69330;SDS011;56475;52.114;5.480;2022-08-21T02:48:36;9.82;;;4.25;;
69330;SDS011;56475;52.114;5.480;2022-08-21T02:51:09;7.73;;;4.10;;
69330;SDS011;56475;52.114;5.480;2022-08-21T02:53:39;5.22;;;4.00;;
69330;SDS011;56475;52.114;5.480;2022-08-21T02:56:07;7.30;;;4.18;;
69330;SDS011;56475;52.114;5.480;2022-08-21T02:58:37;8.18;;;4.47;;
69330;SDS011;56475;52.114;5.480;2022-08-21T03:01:08;7.72;;;4.68;;
69330;SDS011;56475;52.114;5.480;2022-08-21T03:03:37;10.47;;;4.00;;
69330;SDS011;56475;52.114;5.480;2022-08-21T03:06:06;5.47;;;4.18;;
69330;SDS011;56475;52.114;5.480;2022-08-21T03:08:34;5.55;;;4.35;;
69330;SDS011;56475;52.114;5.480;2022-08-21T03:11:02;8.57;;;4.63;;
69330;SDS011;56475;52.114;5.480;2022-08-21T03:13:33;13.43;;;5.57;;
69330;SDS011;56475;52.114;5.480;2022-08-21T03:16:00;7.17;;;4.87;;
69330;SDS011;56475;52.114;5.480;2022-08-21T03:18:30;7.88;;;4.85;;
69330;SDS011;56475;52.114;5.480;2022-08-21T03:20:57;9.32;;;6.00;;
69330;SDS011;56475;52.114;5.480;2022-08-21T03:23:25;8.88;;;5.35;;
69330;SDS011;56475;52.114;5.480;2022-08-21T03:26:00;8.38;;;4.90;;
69330;SDS011;56475;52.114;5.480;2022-08-21T03:28:27;10.10;;;5.60;;
69330;SDS011;56475;52.114;5.480;2022-08-21T03:30:54;11.07;;;6.28;;
69330;SDS011;56475;52.114;5.480;2022-08-21T03:33:21;11.65;;;5.75;;
69330;SDS011;56475;52.114;5.480;2022-08-21T03:35:55;10.60;;;5.40;;
69330;SDS011;56475;52.114;5.480;2022-08-21T03:38:27;16.38;;;6.57;;
69330;SDS011;56475;52.114;5.480;2022-08-21T03:40:55;16.00;;;6.00;;
69330;SDS011;56475;52.114;5.480;2022-08-21T03:43:23;15.82;;;6.95;;
69330;SDS011;56475;52.114;5.480;2022-08-21T03:45:50;18.63;;;7.53;;
69330;SDS011;56475;52.114;5.480;2022-08-21T03:48:18;16.55;;;7.40;;
69330;SDS011;56475;52.114;5.480;2022-08-21T03:50:45;21.73;;;7.45;;
69330;SDS011;56475;52.114;5.480;2022-08-21T03:53:14;13.17;;;7.23;;
69330;SDS011;56475;52.114;5.480;2022-08-21T03:55:44;17.05;;;6.93;;
69330;SDS011;56475;52.114;5.480;2022-08-21T03:58:12;11.73;;;6.55;;
69330;SDS011;56475;52.114;5.480;2022-08-21T04:00:43;15.65;;;6.95;;
69330;SDS011;56475;52.114;5.480;2022-08-21T04:03:18;18.13;;;6.68;;
69330;SDS011;56475;52.114;5.480;2022-08-21T04:05:46;10.40;;;5.50;;
69330;SDS011;56475;52.114;5.480;2022-08-21T04:08:14;9.38;;;5.57;;
69330;SDS011;56475;52.114;5.480;2022-08-21T04:10:43;14.75;;;6.70;;
69330;SDS011;56475;52.114;5.480;2022-08-21T04:13:13;10.00;;;5.90;;
69330;SDS011;56475;52.114;5.480;2022-08-21T04:15:43;12.00;;;6.15;;
69330;SDS011;56475;52.114;5.480;2022-08-21T04:18:10;11.30;;;5.63;;
69330;SDS011;56475;52.114;5.480;2022-08-21T04:20:40;9.52;;;5.28;;
69330;SDS011;56475;52.114;5.480;2022-08-21T04:23:25;9.40;;;5.55;;
69330;SDS011;56475;52.114;5.480;2022-08-21T04:25:53;10.13;;;5.70;;
69330;SDS011;56475;52.114;5.480;2022-08-21T04:28:22;14.20;;;5.50;;
69330;SDS011;56475;52.114;5.480;2022-08-21T04:30:54;16.00;;;5.13;;
69330;SDS011;56475;52.114;5.480;2022-08-21T04:33:22;11.95;;;6.35;;
69330;SDS011;56475;52.114;5.480;2022-08-21T04:35:50;11.32;;;5.63;;
69330;SDS011;56475;52.114;5.480;2022-08-21T04:38:17;11.07;;;5.75;;
69330;SDS011;56475;52.114;5.480;2022-08-21T04:40:45;10.95;;;5.80;;
69330;SDS011;56475;52.114;5.480;2022-08-21T04:43:14;16.10;;;5.43;;
69330;SDS011;56475;52.114;5.480;2022-08-21T04:45:43;8.95;;;4.60;;
69330;SDS011;56475;52.114;5.480;2022-08-21T04:48:15;10.20;;;4.72;;
69330;SDS011;56475;52.114;5.480;2022-08-21T04:53:24;7.72;;;5.18;;
69330;SDS011;56475;52.114;5.480;2022-08-21T04:56:12;12.07;;;5.60;;
69330;SDS011;56475;52.114;5.480;2022-08-21T04:58:45;11.20;;;5.45;;
69330;SDS011;56475;52.114;5.480;2022-08-21T05:01:15;11.55;;;6.32;;
69330;SDS011;56475;52.114;5.480;2022-08-21T05:03:46;9.90;;;5.93;;
69330;SDS011;56475;52.114;5.480;2022-08-21T05:06:15;13.48;;;5.95;;
69330;SDS011;56475;52.114;5.480;2022-08-21T05:08:43;13.93;;;6.47;;
69330;SDS011;56475;52.114;5.480;2022-08-21T05:11:13;11.45;;;5.15;;
69330;SDS011;56475;52.114;5.480;2022-08-21T05:13:40;12.27;;;5.97;;
69330;SDS011;56475;52.114;5.480;2022-08-21T05:16:07;8.70;;;5.90;;
69330;SDS011;56475;52.114;5.480;2022-08-21T05:18:34;13.88;;;5.78;;
69330;SDS011;56475;52.114;5.480;2022-08-21T05:21:02;9.80;;;5.93;;
69330;SDS011;56475;52.114;5.480;2022-08-21T05:23:29;12.13;;;6.70;;
69330;SDS011;56475;52.114;5.480;2022-08-21T05:25:56;11.88;;;6.32;;
69330;SDS011;56475;52.114;5.480;2022-08-21T05:28:25;13.80;;;6.75;;
69330;SDS011;56475;52.114;5.480;2022-08-21T05:30:52;13.35;;;6.82;;
69330;SDS011;56475;52.114;5.480;2022-08-21T05:33:19;17.23;;;8.60;;
69330;SDS011;56475;52.114;5.480;2022-08-21T05:35:49;28.65;;;9.13;;
69330;SDS011;56475;52.114;5.480;2022-08-21T05:38:18;16.52;;;8.10;;
69330;SDS011;56475;52.114;5.480;2022-08-21T05:40:45;20.23;;;8.80;;
69330;SDS011;56475;52.114;5.480;2022-08-21T05:43:13;17.77;;;9.13;;
69330;SDS011;56475;52.114;5.480;2022-08-21T05:45:41;22.37;;;9.77;;
69330;SDS011;56475;52.114;5.480;2022-08-21T05:48:11;26.65;;;10.30;;
69330;SDS011;56475;52.114;5.480;2022-08-21T05:50:40;22.83;;;9.63;;
69330;SDS011;56475;52.114;5.480;2022-08-21T05:53:08;19.48;;;9.80;;
69330;SDS011;56475;52.114;5.480;2022-08-21T05:55:36;22.30;;;9.88;;
69330;SDS011;56475;52.114;5.480;2022-08-21T05:58:12;25.20;;;9.80;;
69330;SDS011;56475;52.114;5.480;2022-08-21T06:00:43;16.75;;;9.02;;
69330;SDS011;56475;52.114;5.480;2022-08-21T06:03:17;26.35;;;9.38;;
69330;SDS011;56475;52.114;5.480;2022-08-21T06:05:50;26.38;;;9.55;;
69330;SDS011;56475;52.114;5.480;2022-08-21T06:08:21;24.23;;;8.77;;
69330;SDS011;56475;52.114;5.480;2022-08-21T06:10:49;31.60;;;15.73;;
69330;SDS011;56475;52.114;5.480;2022-08-21T06:13:18;24.63;;;9.40;;
69330;SDS011;56475;52.114;5.480;2022-08-21T06:15:46;20.25;;;9.10;;
69330;SDS011;56475;52.114;5.480;2022-08-21T06:18:14;17.67;;;8.52;;
69330;SDS011;56475;52.114;5.480;2022-08-21T06:20:41;15.50;;;7.82;;
69330;SDS011;56475;52.114;5.480;2022-08-21T06:23:08;20.20;;;8.43;;
69330;SDS011;56475;52.114;5.480;2022-08-21T06:25:35;18.23;;;8.45;;
69330;SDS011;56475;52.114;5.480;2022-08-21T06:28:03;22.67;;;8.00;;
69330;SDS011;56475;52.114;5.480;2022-08-21T06:30:33;19.60;;;7.93;;
69330;SDS011;56475;52.114;5.480;2022-08-21T06:33:05;18.50;;;8.32;;
69330;SDS011;56475;52.114;5.480;2022-08-21T06:35:33;17.90;;;7.80;;
69330;SDS011;56475;52.114;5.480;2022-08-21T06:38:01;23.90;;;8.20;;
69330;SDS011;56475;52.114;5.480;2022-08-21T06:40:28;22.50;;;8.95;;
69330;SDS011;56475;52.114;5.480;2022-08-21T06:43:08;21.73;;;8.30;;
69330;SDS011;56475;52.114;5.480;2022-08-21T06:45:40;17.15;;;7.80;;
69330;SDS011;56475;52.114;5.480;2022-08-21T06:48:07;23.50;;;7.53;;
69330;SDS011;56475;52.114;5.480;2022-08-21T06:50:34;22.95;;;7.85;;
69330;SDS011;56475;52.114;5.480;2022-08-21T06:53:08;27.75;;;8.10;;
69330;SDS011;56475;52.114;5.480;2022-08-21T06:55:38;22.20;;;7.80;;
69330;SDS011;56475;52.114;5.480;2022-08-21T06:58:06;22.23;;;8.30;;
69330;SDS011;56475;52.114;5.480;2022-08-21T07:00:33;23.63;;;7.37;;
69330;SDS011;56475;52.114;5.480;2022-08-21T07:03:01;18.58;;;7.05;;
69330;SDS011;56475;52.114;5.480;2022-08-21T07:05:29;17.05;;;7.25;;
69330;SDS011;56475;52.114;5.480;2022-08-21T07:07:56;15.15;;;6.55;;
69330;SDS011;56475;52.114;5.480;2022-08-21T07:10:25;20.02;;;8.35;;
69330;SDS011;56475;52.114;5.480;2022-08-21T07:12:54;22.40;;;7.67;;
69330;SDS011;56475;52.114;5.480;2022-08-21T07:15:33;24.48;;;7.80;;
69330;SDS011;56475;52.114;5.480;2022-08-21T07:18:00;17.25;;;6.93;;
69330;SDS011;56475;52.114;5.480;2022-08-21T07:20:29;22.00;;;6.32;;
69330;SDS011;56475;52.114;5.480;2022-08-21T07:23:02;18.35;;;6.40;;
69330;SDS011;56475;52.114;5.480;2022-08-21T07:25:37;22.90;;;6.27;;
69330;SDS011;56475;52.114;5.480;2022-08-21T07:28:04;21.25;;;6.13;;
69330;SDS011;56475;52.114;5.480;2022-08-21T07:30:33;19.33;;;6.60;;
69330;SDS011;56475;52.114;5.480;2022-08-21T07:33:00;21.52;;;6.40;;
69330;SDS011;56475;52.114;5.480;2022-08-21T07:35:27;19.65;;;5.85;;
69330;SDS011;56475;52.114;5.480;2022-08-21T07:37:54;15.53;;;5.90;;
69330;SDS011;56475;52.114;5.480;2022-08-21T07:40:25;26.75;;;7.20;;
69330;SDS011;56475;52.114;5.480;2022-08-21T07:42:52;15.63;;;6.00;;
69330;SDS011;56475;52.114;5.480;2022-08-21T07:45:22;21.17;;;5.80;;
69330;SDS011;56475;52.114;5.480;2022-08-21T07:47:50;19.23;;;5.82;;
69330;SDS011;56475;52.114;5.480;2022-08-21T07:50:23;22.80;;;5.93;;
69330;SDS011;56475;52.114;5.480;2022-08-21T07:52:51;17.17;;;5.15;;
69330;SDS011;56475;52.114;5.480;2022-08-21T07:55:19;19.35;;;5.45;;
69330;SDS011;56475;52.114;5.480;2022-08-21T07:57:48;19.13;;;5.10;;
69330;SDS011;56475;52.114;5.480;2022-08-21T08:00:16;19.50;;;5.20;;
69330;SDS011;56475;52.114;5.480;2022-08-21T08:02:48;15.90;;;4.97;;
69330;SDS011;56475;52.114;5.480;2022-08-21T08:05:18;19.45;;;5.13;;
69330;SDS011;56475;52.114;5.480;2022-08-21T08:07:49;14.85;;;4.93;;
69330;SDS011;56475;52.114;5.480;2022-08-21T08:10:17;20.10;;;4.90;;
69330;SDS011;56475;52.114;5.480;2022-08-21T08:12:45;16.77;;;5.00;;
69330;SDS011;56475;52.114;5.480;2022-08-21T08:15:15;16.80;;;4.47;;
69330;SDS011;56475;52.114;5.480;2022-08-21T08:17:45;18.42;;;5.35;;
69330;SDS011;56475;52.114;5.480;2022-08-21T08:20:13;16.98;;;4.53;;
69330;SDS011;56475;52.114;5.480;2022-08-21T08:22:41;17.80;;;4.40;;
69330;SDS011;56475;52.114;5.480;2022-08-21T08:25:15;22.52;;;4.55;;
69330;SDS011;56475;52.114;5.480;2022-08-21T08:27:43;21.60;;;4.07;;
69330;SDS011;56475;52.114;5.480;2022-08-21T08:30:13;15.32;;;3.92;;
69330;SDS011;56475;52.114;5.480;2022-08-21T08:32:42;18.10;;;4.05;;
69330;SDS011;56475;52.114;5.480;2022-08-21T08:35:09;24.25;;;4.53;;
69330;SDS011;56475;52.114;5.480;2022-08-21T08:37:42;23.30;;;5.05;;
69330;SDS011;56475;52.114;5.480;2022-08-21T08:40:22;13.00;;;4.00;;
69330;SDS011;56475;52.114;5.480;2022-08-21T08:43:08;18.77;;;3.95;;
69330;SDS011;56475;52.114;5.480;2022-08-21T08:48:21;24.80;;;4.15;;
69330;SDS011;56475;52.114;5.480;2022-08-21T08:51:03;17.05;;;4.45;;
69330;SDS011;56475;52.114;5.480;2022-08-21T08:53:37;15.87;;;3.90;;
69330;SDS011;56475;52.114;5.480;2022-08-21T08:56:15;15.80;;;3.63;;
69330;SDS011;56475;52.114;5.480;2022-08-21T08:58:44;19.27;;;5.60;;
69330;SDS011;56475;52.114;5.480;2022-08-21T09:01:16;17.20;;;5.70;;
69330;SDS011;56475;52.114;5.480;2022-08-21T09:03:46;13.23;;;3.30;;
69330;SDS011;56475;52.114;5.480;2022-08-21T09:06:30;18.17;;;3.53;;
69330;SDS011;56475;52.114;5.480;2022-08-21T09:09:19;14.60;;;3.17;;
69330;SDS011;56475;52.114;5.480;2022-08-21T09:11:52;17.70;;;2.90;;
69330;SDS011;56475;52.114;5.480;2022-08-21T09:14:42;14.68;;;3.00;;
69330;SDS011;56475;52.114;5.480;2022-08-21T09:25:58;14.82;;;2.95;;
69330;SDS011;56475;52.114;5.480;2022-08-21T09:28:34;15.40;;;3.42;;
69330;SDS011;56475;52.114;5.480;2022-08-21T09:31:06;15.00;;;3.08;;
69330;SDS011;56475;52.114;5.480;2022-08-21T09:33:35;14.40;;;2.63;;
69330;SDS011;56475;52.114;5.480;2022-08-21T09:36:03;14.80;;;2.40;;
69330;SDS011;56475;52.114;5.480;2022-08-21T09:38:32;11.13;;;2.30;;
69330;SDS011;56475;52.114;5.480;2022-08-21T09:41:05;14.23;;;2.50;;
69330;SDS011;56475;52.114;5.480;2022-08-21T09:43:37;18.15;;;3.15;;
69330;SDS011;56475;52.114;5.480;2022-08-21T09:46:06;17.13;;;3.07;;
69330;SDS011;56475;52.114;5.480;2022-08-21T09:51:16;22.08;;;2.15;;
69330;SDS011;56475;52.114;5.480;2022-08-21T09:53:49;15.43;;;2.58;;
69330;SDS011;56475;52.114;5.480;2022-08-21T09:56:53;10.02;;;2.45;;
69330;SDS011;56475;52.114;5.480;2022-08-21T09:59:41;11.07;;;2.37;;
69330;SDS011;56475;52.114;5.480;2022-08-21T10:02:21;16.42;;;2.55;;
69330;SDS011;56475;52.114;5.480;2022-08-21T10:05:01;12.27;;;2.40;;
69330;SDS011;56475;52.114;5.480;2022-08-21T10:07:54;14.10;;;2.42;;
69330;SDS011;56475;52.114;5.480;2022-08-21T10:10:24;15.57;;;2.70;;
69330;SDS011;56475;52.114;5.480;2022-08-21T10:13:01;11.63;;;2.10;;
69330;SDS011;56475;52.114;5.480;2022-08-21T10:24:58;9.77;;;2.22;;
69330;SDS011;56475;52.114;5.480;2022-08-21T10:27:15;13.90;;;2.37;;
69330;SDS011;56475;52.114;5.480;2022-08-21T10:30:05;13.45;;;2.65;;
69330;SDS011;56475;52.114;5.480;2022-08-21T10:35:23;13.30;;;2.40;;
69330;SDS011;56475;52.114;5.480;2022-08-21T10:38:01;9.13;;;1.98;;
69330;SDS011;56475;52.114;5.480;2022-08-21T10:41:01;11.47;;;2.07;;
69330;SDS011;56475;52.114;5.480;2022-08-21T10:43:58;19.60;;;2.55;;
69330;SDS011;56475;52.114;5.480;2022-08-21T10:46:43;15.98;;;2.55;;
69330;SDS011;56475;52.114;5.480;2022-08-21T10:51:50;8.73;;;2.20;;
69330;SDS011;56475;52.114;5.480;2022-08-21T10:57:27;11.90;;;2.38;;
69330;SDS011;56475;52.114;5.480;2022-08-21T11:00:15;10.43;;;2.08;;
69330;SDS011;56475;52.114;5.480;2022-08-21T11:03:00;6.40;;;1.90;;
69330;SDS011;56475;52.114;5.480;2022-08-21T11:05:42;11.02;;;2.05;;
69330;SDS011;56475;52.114;5.480;2022-08-21T11:08:23;4.77;;;1.70;;
69330;SDS011;56475;52.114;5.480;2022-08-21T11:10:57;7.15;;;1.73;;
69330;SDS011;56475;52.114;5.480;2022-08-21T11:13:48;8.20;;;2.05;;
69330;SDS011;56475;52.114;5.480;2022-08-21T11:16:36;11.27;;;1.83;;
69330;SDS011;56475;52.114;5.480;2022-08-21T11:21:43;6.07;;;1.73;;
69330;SDS011;56475;52.114;5.480;2022-08-21T11:29:33;8.68;;;1.42;;
69330;SDS011;56475;52.114;5.480;2022-08-21T11:51:53;5.10;;;1.67;;
69330;SDS011;56475;52.114;5.480;2022-08-21T11:57:19;7.47;;;1.73;;
69330;SDS011;56475;52.114;5.480;2022-08-21T12:00:33;6.70;;;1.70;;
69330;SDS011;56475;52.114;5.480;2022-08-21T12:02:45;8.00;;;1.83;;
69330;SDS011;56475;52.114;5.480;2022-08-21T12:05:23;7.45;;;1.60;;
69330;SDS011;56475;52.114;5.480;2022-08-21T12:08:12;28.40;;;2.05;;
69330;SDS011;56475;52.114;5.480;2022-08-21T12:10:42;10.18;;;1.58;;
69330;SDS011;56475;52.114;5.480;2022-08-21T12:13:26;8.98;;;1.77;;
69330;SDS011;56475;52.114;5.480;2022-08-21T12:18:42;12.13;;;1.60;;
69330;SDS011;56475;52.114;5.480;2022-08-21T12:21:27;8.95;;;1.88;;
69330;SDS011;56475;52.114;5.480;2022-08-21T12:31:53;10.88;;;2.53;;
69330;SDS011;56475;52.114;5.480;2022-08-21T12:34:38;10.93;;;2.35;;
69330;SDS011;56475;52.114;5.480;2022-08-21T12:37:15;9.10;;;2.90;;
69330;SDS011;56475;52.114;5.480;2022-08-21T12:39:57;12.27;;;2.40;;
69330;SDS011;56475;52.114;5.480;2022-08-21T12:42:36;8.77;;;2.33;;
69330;SDS011;56475;52.114;5.480;2022-08-21T12:48:03;8.30;;;2.38;;
69330;SDS011;56475;52.114;5.480;2022-08-21T12:50:42;9.00;;;2.17;;
69330;SDS011;56475;52.114;5.480;2022-08-21T12:53:35;10.20;;;2.10;;
69330;SDS011;56475;52.114;5.480;2022-08-21T12:56:18;7.37;;;1.80;;
69330;SDS011;56475;52.114;5.480;2022-08-21T12:58:57;11.05;;;2.25;;
69330;SDS011;56475;52.114;5.480;2022-08-21T13:04:10;6.32;;;1.60;;
69330;SDS011;56475;52.114;5.480;2022-08-21T13:06:41;5.10;;;1.55;;
69330;SDS011;56475;52.114;5.480;2022-08-21T13:09:12;7.73;;;1.80;;
69330;SDS011;56475;52.114;5.480;2022-08-21T13:11:42;9.30;;;2.22;;
69330;SDS011;56475;52.114;5.480;2022-08-21T13:17:10;8.20;;;1.75;;
69330;SDS011;56475;52.114;5.480;2022-08-21T13:19:37;6.35;;;1.58;;
69330;SDS011;56475;52.114;5.480;2022-08-21T13:22:14;14.00;;;1.73;;
69330;SDS011;56475;52.114;5.480;2022-08-21T13:25:00;8.77;;;1.60;;
69330;SDS011;56475;52.114;5.480;2022-08-21T13:27:33;10.70;;;2.50;;
69330;SDS011;56475;52.114;5.480;2022-08-21T13:30:22;4.93;;;1.65;;
69330;SDS011;56475;52.114;5.480;2022-08-21T13:32:57;9.27;;;1.60;;
69330;SDS011;56475;52.114;5.480;2022-08-21T13:35:35;5.80;;;1.80;;
69330;SDS011;56475;52.114;5.480;2022-08-21T13:38:13;16.67;;;2.35;;
69330;SDS011;56475;52.114;5.480;2022-08-21T13:41:25;20.40;;;2.35;;
69330;SDS011;56475;52.114;5.480;2022-08-21T13:46:53;13.55;;;2.17;;
69330;SDS011;56475;52.114;5.480;2022-08-21T13:49:24;217.70;;;10.70;;
69330;SDS011;56475;52.114;5.480;2022-08-21T13:52:03;103.75;;;5.65;;
69330;SDS011;56475;52.114;5.480;2022-08-21T13:54:36;38.85;;;2.72;;
69330;SDS011;56475;52.114;5.480;2022-08-21T13:57:16;13.05;;;2.22;;
